Time;durP1;ratioP1;P1;durP2;ratioP2;P2;SDS_P1;SDS_P2;PMS_P1;PMS_P2;Temp;Humidity;BMP_temperature;BMP_pressure;BME280_temperature;BME280_humidity;BME280_pressure;Samples;Min_cycle;Max_cycle;Signal;HPM_P1;HPM_P2
2023/10/26 00:01:26;;;;;;;10.25;8.38;;;10.60;93.10;;;;;;5051958;28;20017;-26
2023/10/26 00:03:52;;;;;;;9.73;8.38;;;10.60;93.10;;;;;;5051991;28;20056;-27
2023/10/26 00:06:17;;;;;;;11.43;8.75;;;10.50;93.10;;;;;;5052053;28;20017;-37
2023/10/26 00:08:43;;;;;;;11.43;8.70;;;10.60;93.10;;;;;;5051727;28;20040;-37
2023/10/26 00:11:08;;;;;;;10.50;8.73;;;10.50;93.10;;;;;;5051711;28;20020;-29
2023/10/26 00:13:34;;;;;;;11.38;8.50;;;10.50;93.10;;;;;;5051665;28;20033;-29
2023/10/26 00:15:59;;;;;;;10.77;7.88;;;10.50;93.10;;;;;;5051901;28;20396;-27
2023/10/26 00:18:25;;;;;;;10.02;8.38;;;10.50;93.10;;;;;;5051809;28;20104;-27
2023/10/26 00:21:00;;;;;;;10.75;8.23;;;10.50;93.20;;;;;;5051510;28;20029;-30
2023/10/26 00:23:27;;;;;;;11.63;8.40;;;10.50;93.20;;;;;;5051544;28;20091;-27
2023/10/26 00:25:53;;;;;;;12.48;8.40;;;10.40;93.10;;;;;;5051653;28;20078;-28
2023/10/26 00:28:19;;;;;;;9.63;7.72;;;10.40;93.10;;;;;;5051761;28;20025;-27
2023/10/26 00:30:45;;;;;;;10.18;8.23;;;10.40;93.20;;;;;;5051337;28;20045;-29
2023/10/26 00:33:10;;;;;;;10.93;8.98;;;10.30;93.20;;;;;;5051839;28;20025;-31
2023/10/26 00:35:36;;;;;;;10.90;8.30;;;10.30;93.20;;;;;;5051634;28;20025;-28
2023/10/26 00:38:01;;;;;;;9.93;8.60;;;10.20;93.20;;;;;;5051850;28;20051;-29
2023/10/26 00:40:27;;;;;;;12.93;9.05;;;10.20;93.30;;;;;;5051457;28;20029;-27
2023/10/26 00:43:04;;;;;;;12.60;8.95;;;10.10;93.30;;;;;;5051561;28;20063;-27
2023/10/26 00:45:35;;;;;;;10.27;8.63;;;10.00;93.30;;;;;;5051310;28;20485;-26
2023/10/26 00:48:01;;;;;;;11.95;9.75;;;10.00;93.30;;;;;;5051535;28;20511;-29
2023/10/26 00:50:27;;;;;;;11.15;9.48;;;10.00;93.40;;;;;;5051754;28;20029;-27
2023/10/26 00:52:53;;;;;;;11.73;9.32;;;10.00;93.40;;;;;;5055369;28;20044;-31
2023/10/26 00:55:19;;;;;;;21.67;9.60;;;10.00;93.40;;;;;;5055588;28;20033;-28
2023/10/26 00:57:45;;;;;;;12.43;9.43;;;10.00;93.40;;;;;;5055688;28;20060;-37
2023/10/26 01:00:11;;;;;;;12.35;9.77;;;10.00;93.40;;;;;;5055089;28;20134;-32
2023/10/26 01:02:38;;;;;;;13.18;9.20;;;10.00;93.40;;;;;;5054975;28;20041;-28
2023/10/26 01:05:04;;;;;;;14.27;9.93;;;10.00;93.40;;;;;;5055206;28;20481;-28
2023/10/26 01:07:30;;;;;;;14.63;10.32;;;10.00;93.40;;;;;;5054949;28;20032;-28
2023/10/26 01:09:56;;;;;;;13.93;9.52;;;10.00;93.40;;;;;;5055129;28;20389;-27
2023/10/26 01:12:22;;;;;;;12.38;10.10;;;10.00;93.40;;;;;;5055008;28;20037;-28
2023/10/26 01:14:48;;;;;;;11.55;9.13;;;9.90;93.30;;;;;;5055040;28;20063;-27
2023/10/26 01:17:14;;;;;;;12.05;9.07;;;9.90;93.40;;;;;;5055133;28;20075;-29
2023/10/26 01:19:46;;;;;;;9.88;8.63;;;9.90;93.40;;;;;;5054725;28;20043;-26
2023/10/26 01:22:11;;;;;;;14.05;9.52;;;9.90;93.50;;;;;;5053497;28;20032;-27
2023/10/26 01:24:37;;;;;;;10.38;9.02;;;9.80;93.40;;;;;;5054935;28;20029;-26
2023/10/26 01:27:04;;;;;;;14.07;9.45;;;9.80;93.50;;;;;;5055201;28;20021;-29
2023/10/26 01:29:30;;;;;;;12.35;8.77;;;9.80;93.50;;;;;;5054745;28;20493;-26
2023/10/26 01:31:56;;;;;;;10.52;8.25;;;9.80;93.50;;;;;;5054730;28;20394;-27
2023/10/26 01:34:21;;;;;;;11.35;9.48;;;9.80;93.50;;;;;;5055100;28;20093;-27
2023/10/26 01:36:48;;;;;;;10.77;8.52;;;9.80;93.50;;;;;;5055022;28;20037;-27
2023/10/26 01:39:14;;;;;;;13.45;9.15;;;9.80;93.50;;;;;;5054519;28;20029;-32
2023/10/26 01:41:40;;;;;;;11.85;8.95;;;9.80;93.50;;;;;;5054784;28;20025;-27
2023/10/26 01:44:05;;;;;;;13.32;8.82;;;9.70;93.50;;;;;;5053155;28;20040;-35
2023/10/26 01:46:31;;;;;;;11.90;8.93;;;9.80;93.60;;;;;;5054432;28;20478;-27
2023/10/26 01:48:59;;;;;;;10.70;8.48;;;9.80;93.60;;;;;;5054412;28;20385;-29
2023/10/26 01:51:24;;;;;;;10.65;9.13;;;9.80;93.50;;;;;;5054362;28;20029;-26
2023/10/26 01:53:50;;;;;;;11.07;9.07;;;9.90;93.50;;;;;;5054466;28;20385;-28
2023/10/26 01:56:15;;;;;;;12.32;9.05;;;9.90;93.50;;;;;;5054396;28;20025;-27
2023/10/26 01:58:41;;;;;;;13.55;9.88;;;9.90;93.50;;;;;;5054281;28;20031;-28
2023/10/26 02:01:06;;;;;;;14.45;10.35;;;10.00;93.50;;;;;;5053987;28;20033;-27
2023/10/26 02:03:32;;;;;;;14.20;11.13;;;10.00;93.50;;;;;;5054115;28;20032;-28
2023/10/26 02:05:58;;;;;;;14.13;10.85;;;10.00;93.40;;;;;;5054218;28;20025;-29
2023/10/26 02:08:23;;;;;;;16.33;11.77;;;10.00;93.40;;;;;;5054164;28;20114;-30
2023/10/26 02:10:49;;;;;;;14.35;10.75;;;10.10;93.50;;;;;;5054127;28;20362;-27
2023/10/26 02:13:14;;;;;;;16.05;10.90;;;10.10;93.40;;;;;;5053944;28;20025;-28
2023/10/26 02:15:40;;;;;;;13.55;10.70;;;10.10;93.40;;;;;;5054169;28;20025;-28
2023/10/26 02:18:06;;;;;;;14.45;11.93;;;10.10;93.70;;;;;;5053891;28;20021;-28
2023/10/26 02:20:31;;;;;;;14.35;10.73;;;10.10;93.40;;;;;;5053763;28;20174;-28
2023/10/26 02:22:57;;;;;;;16.50;12.77;;;10.20;93.40;;;;;;5054077;28;20102;-26
2023/10/26 02:25:23;;;;;;;14.02;11.25;;;10.10;93.40;;;;;;5054045;28;20060;-29
2023/10/26 02:27:48;;;;;;;17.35;11.90;;;10.10;93.40;;;;;;5054022;28;20037;-28
2023/10/26 02:30:14;;;;;;;15.05;11.27;;;10.20;93.40;;;;;;5053435;28;20087;-27
2023/10/26 02:32:40;;;;;;;15.10;11.23;;;10.20;93.40;;;;;;5053656;28;20021;-26
2023/10/26 02:35:06;;;;;;;15.80;11.82;;;10.20;93.40;;;;;;5053530;28;20036;-28
2023/10/26 02:37:38;;;;;;;15.50;11.07;;;10.20;93.40;;;;;;5053742;28;20489;-27
2023/10/26 02:40:08;;;;;;;14.80;11.10;;;10.20;93.40;;;;;;5053453;28;20044;-31
2023/10/26 02:42:34;;;;;;;13.75;11.07;;;10.20;93.30;;;;;;5053436;28;20029;-27
2023/10/26 02:45:00;;;;;;;15.45;11.80;;;10.20;93.30;;;;;;5053166;28;20029;-27
2023/10/26 02:47:25;;;;;;;15.35;11.57;;;10.20;93.30;;;;;;5053521;28;20040;-32
2023/10/26 02:49:51;;;;;;;14.00;10.57;;;10.10;93.30;;;;;;5053228;28;20039;-27
2023/10/26 02:52:17;;;;;;;14.65;11.07;;;10.10;93.30;;;;;;5053372;28;20025;-29
2023/10/26 02:54:43;;;;;;;15.85;11.15;;;10.10;93.30;;;;;;5053585;28;20029;-27
2023/10/26 02:57:08;;;;;;;14.57;10.75;;;10.10;93.40;;;;;;5053210;28;20029;-35
2023/10/26 02:59:34;;;;;;;15.63;11.13;;;10.00;93.40;;;;;;5053182;28;20079;-28
2023/10/26 03:02:00;;;;;;;13.27;10.55;;;10.00;93.40;;;;;;5053119;28;20077;-31
2023/10/26 03:04:25;;;;;;;14.00;10.48;;;10.00;93.40;;;;;;5053010;28;20397;-29
2023/10/26 03:06:51;;;;;;;12.88;10.65;;;10.00;93.40;;;;;;5053300;28;20020;-27
2023/10/26 03:09:17;;;;;;;15.70;10.77;;;10.00;93.40;;;;;;5053142;28;20028;-25
2023/10/26 03:11:43;;;;;;;13.05;10.65;;;10.00;93.40;;;;;;5053089;28;20025;-26
2023/10/26 03:14:08;;;;;;;14.02;10.82;;;10.00;93.40;;;;;;5052360;28;20029;-26
2023/10/26 03:16:34;;;;;;;15.93;11.45;;;10.00;93.40;;;;;;5052941;28;20252;-27
2023/10/26 03:19:00;;;;;;;16.50;11.50;;;10.00;93.40;;;;;;5052635;28;20040;-34
2023/10/26 03:21:26;;;;;;;15.60;12.23;;;10.00;93.40;;;;;;5052639;28;20038;-28
2023/10/26 03:23:55;;;;;;;14.80;11.07;;;10.10;93.40;;;;;;5053032;28;20051;-26
2023/10/26 03:26:20;;;;;;;15.25;11.10;;;10.00;93.40;;;;;;5052625;28;20079;-27
2023/10/26 03:28:49;;;;;;;15.57;12.00;;;10.10;93.40;;;;;;5052536;28;20036;-27
2023/10/26 03:31:16;;;;;;;14.18;11.50;;;10.10;93.40;;;;;;5052528;28;20162;-29
2023/10/26 03:33:41;;;;;;;15.68;11.48;;;10.10;93.40;;;;;;5052730;28;20063;-26
2023/10/26 03:36:18;;;;;;;14.93;11.38;;;10.10;93.40;;;;;;5052526;28;20056;-26
2023/10/26 03:38:44;;;;;;;14.93;10.95;;;10.10;93.40;;;;;;5052761;28;20520;-25
2023/10/26 03:41:10;;;;;;;14.88;11.50;;;10.10;93.40;;;;;;5052537;28;20037;-26
2023/10/26 03:43:36;;;;;;;14.02;11.00;;;10.10;93.40;;;;;;5052269;28;20082;-27
2023/10/26 03:46:02;;;;;;;14.35;11.48;;;10.10;93.40;;;;;;5052476;28;20036;-25
2023/10/26 03:48:28;;;;;;;14.90;11.00;;;10.10;93.40;;;;;;5051797;28;20071;-29
2023/10/26 03:50:53;;;;;;;14.68;11.25;;;10.00;93.40;;;;;;5052535;28;20516;-28
2023/10/26 03:53:19;;;;;;;14.57;11.07;;;10.00;93.30;;;;;;5052145;28;20119;-26
2023/10/26 03:55:45;;;;;;;16.15;11.65;;;10.00;93.40;;;;;;5052299;28;20082;-27
2023/10/26 03:58:12;;;;;;;14.85;12.07;;;10.00;93.40;;;;;;5052498;28;20598;-26
2023/10/26 04:00:37;;;;;;;14.88;11.25;;;10.00;93.40;;;;;;5052058;28;20119;-26
2023/10/26 04:03:03;;;;;;;16.65;11.82;;;10.00;93.40;;;;;;5052324;28;20059;-27
2023/10/26 04:05:29;;;;;;;16.83;11.27;;;10.00;93.40;;;;;;5052381;28;20032;-26
2023/10/26 04:07:56;;;;;;;14.10;10.93;;;10.00;93.40;;;;;;5052082;28;20025;-28
2023/10/26 04:10:22;;;;;;;16.23;12.57;;;10.00;93.40;;;;;;5051896;28;20025;-25
2023/10/26 04:12:48;;;;;;;16.20;11.68;;;9.90;93.40;;;;;;5052306;28;20033;-26
2023/10/26 04:15:13;;;;;;;16.58;12.27;;;9.90;93.40;;;;;;5050434;28;20026;-27
2023/10/26 04:17:39;;;;;;;16.10;12.10;;;9.90;93.40;;;;;;5051751;28;20029;-27
2023/10/26 04:20:07;;;;;;;17.52;11.48;;;9.80;93.40;;;;;;5051652;28;20053;-26
2023/10/26 04:22:33;;;;;;;17.45;11.23;;;9.80;93.50;;;;;;5051757;28;20496;-25
2023/10/26 04:24:59;;;;;;;14.63;10.73;;;9.80;93.50;;;;;;5051768;28;20025;-33
2023/10/26 04:27:25;;;;;;;14.07;10.50;;;9.80;93.50;;;;;;5050486;28;20428;-27
2023/10/26 04:29:51;;;;;;;16.52;10.57;;;9.80;93.60;;;;;;5051667;28;20041;-29
2023/10/26 04:32:17;;;;;;;15.10;10.90;;;9.80;93.60;;;;;;5051728;28;20460;-27
2023/10/26 04:34:45;;;;;;;13.93;10.75;;;9.80;93.60;;;;;;5052068;28;20033;-26
2023/10/26 04:37:11;;;;;;;13.05;10.32;;;9.80;93.60;;;;;;5050464;28;20112;-29
2023/10/26 04:39:37;;;;;;;14.60;10.48;;;9.80;93.60;;;;;;5051426;28;20112;-27
2023/10/26 04:42:04;;;;;;;13.32;10.50;;;9.80;93.60;;;;;;5052037;28;20405;-27
2023/10/26 04:44:30;;;;;;;13.63;10.10;;;9.80;93.60;;;;;;5051479;28;20046;-26
2023/10/26 04:46:55;;;;;;;15.40;10.55;;;9.80;93.60;;;;;;5051523;28;20108;-27
2023/10/26 04:49:21;;;;;;;28.73;11.88;;;9.80;93.60;;;;;;5051562;28;20448;-26
2023/10/26 04:51:46;;;;;;;21.55;12.05;;;9.90;93.60;;;;;;5050403;28;20028;-29
2023/10/26 04:54:12;;;;;;;28.88;11.15;;;9.90;93.50;;;;;;5050255;28;20040;-27
2023/10/26 04:56:38;;;;;;;29.98;11.07;;;9.90;93.50;;;;;;5051640;28;20029;-27
2023/10/26 04:59:03;;;;;;;20.63;10.73;;;9.90;93.50;;;;;;5051824;28;20123;-28
2023/10/26 05:01:29;;;;;;;32.53;10.57;;;10.00;93.50;;;;;;5051561;28;20041;-27
2023/10/26 05:03:54;;;;;;;47.65;11.43;;;10.00;93.50;;;;;;5051482;28;20033;-28
2023/10/26 05:06:20;;;;;;;30.50;10.88;;;10.00;93.50;;;;;;5051418;28;20025;-26
2023/10/26 05:08:46;;;;;;;45.50;10.77;;;10.00;93.50;;;;;;5051324;28;20028;-29
2023/10/26 05:11:12;;;;;;;31.85;11.35;;;10.00;93.40;;;;;;5051585;28;20384;-28
2023/10/26 05:13:38;;;;;;;37.33;10.68;;;10.00;93.40;;;;;;5051458;28;20037;-32
2023/10/26 05:16:04;;;;;;;41.85;10.73;;;10.10;93.40;;;;;;5051729;28;20029;-27
2023/10/26 05:18:30;;;;;;;35.60;10.70;;;10.00;93.40;;;;;;5051463;28;20035;-29
2023/10/26 05:20:55;;;;;;;41.00;10.73;;;10.00;93.40;;;;;;5051256;28;20541;-28
2023/10/26 05:23:21;;;;;;;30.60;10.60;;;10.00;93.40;;;;;;5051246;28;20040;-29
2023/10/26 05:25:50;;;;;;;41.00;10.82;;;10.00;93.40;;;;;;5051365;28;20029;-28
2023/10/26 05:28:15;;;;;;;28.73;10.98;;;10.00;93.40;;;;;;5051600;28;20481;-29
2023/10/26 05:30:41;;;;;;;50.05;10.90;;;10.00;93.40;;;;;;5051034;28;20041;-27
2023/10/26 05:33:07;;;;;;;36.60;10.65;;;10.00;93.40;;;;;;5051147;28;20047;-28
2023/10/26 05:35:33;;;;;;;37.13;10.52;;;10.00;93.40;;;;;;5051431;28;20389;-28
2023/10/26 05:37:59;;;;;;;33.10;11.00;;;10.00;93.40;;;;;;5053818;28;20033;-27
2023/10/26 05:40:25;;;;;;;30.00;10.88;;;10.00;93.30;;;;;;5054648;28;20055;-26
2023/10/26 05:42:50;;;;;;;28.02;10.23;;;10.00;93.30;;;;;;5054938;28;20025;-27
2023/10/26 05:45:16;;;;;;;21.80;10.00;;;10.00;93.30;;;;;;5054422;28;20025;-30
2023/10/26 05:47:41;;;;;;;26.73;9.70;;;10.00;93.30;;;;;;5054488;28;20067;-27
2023/10/26 05:50:08;;;;;;;26.42;9.93;;;9.90;93.30;;;;;;5053096;28;20444;-26
2023/10/26 05:52:36;;;;;;;16.48;9.73;;;9.80;93.30;;;;;;5054691;28;20351;-31
2023/10/26 05:55:02;;;;;;;14.10;8.98;;;9.80;93.30;;;;;;5054640;28;20489;-28
2023/10/26 05:57:28;;;;;;;12.77;8.80;;;9.70;93.40;;;;;;5054260;28;20040;-31
2023/10/26 05:59:54;;;;;;;13.13;9.30;;;9.70;93.40;;;;;;5054613;28;20020;-27
2023/10/26 06:02:19;;;;;;;15.15;8.95;;;9.70;93.40;;;;;;5054186;28;20112;-27
2023/10/26 06:04:45;;;;;;;11.50;8.82;;;9.70;93.40;;;;;;5054075;28;20485;-29
2023/10/26 06:07:10;;;;;;;11.32;9.38;;;9.70;93.40;;;;;;5054339;28;20079;-27
2023/10/26 06:09:36;;;;;;;14.68;8.88;;;9.70;93.50;;;;;;5053952;28;20033;-29
2023/10/26 06:12:02;;;;;;;13.63;8.57;;;9.70;93.50;;;;;;5054209;28;20040;-26
2023/10/26 06:14:27;;;;;;;14.02;9.13;;;9.70;93.50;;;;;;5054151;28;20477;-29
2023/10/26 06:16:53;;;;;;;21.10;9.32;;;9.70;93.50;;;;;;5053996;28;20472;-27
2023/10/26 06:19:18;;;;;;;20.67;8.85;;;9.70;93.40;;;;;;5053881;28;20029;-29
2023/10/26 06:21:44;;;;;;;15.10;8.98;;;9.70;93.40;;;;;;5054352;28;20057;-28
2023/10/26 06:24:09;;;;;;;11.48;9.27;;;9.70;93.40;;;;;;5052750;28;20029;-27
2023/10/26 06:26:35;;;;;;;11.80;9.57;;;9.60;93.40;;;;;;5054259;28;20022;-28
2023/10/26 06:29:01;;;;;;;11.82;8.82;;;9.60;93.40;;;;;;5053566;28;20036;-27
2023/10/26 06:31:26;;;;;;;13.00;9.15;;;9.60;93.40;;;;;;5053830;28;20100;-28
2023/10/26 06:33:52;;;;;;;14.90;11.40;;;9.50;93.40;;;;;;5053806;28;20170;-27
2023/10/26 06:36:18;;;;;;;17.70;12.68;;;9.50;93.50;;;;;;5052265;28;20083;-30
2023/10/26 06:38:43;;;;;;;13.55;10.40;;;9.50;93.50;;;;;;5053700;28;20037;-29
2023/10/26 06:41:10;;;;;;;13.02;10.07;;;9.50;93.50;;;;;;5053503;28;20082;-29
2023/10/26 06:43:36;;;;;;;14.73;10.50;;;9.60;93.60;;;;;;5053799;28;20025;-27
2023/10/26 06:46:02;;;;;;;13.60;9.88;;;9.60;93.50;;;;;;5053534;28;20024;-26
2023/10/26 06:48:28;;;;;;;12.65;9.85;;;9.60;93.50;;;;;;5052321;28;20390;-27
2023/10/26 06:51:01;;;;;;;12.48;9.80;;;9.70;93.50;;;;;;5053565;28;20036;-29
2023/10/26 06:53:28;;;;;;;15.43;9.60;;;9.70;93.40;;;;;;5052991;28;20142;-26
2023/10/26 06:55:54;;;;;;;13.13;10.25;;;9.60;93.40;;;;;;5053740;28;20469;-27
2023/10/26 06:58:20;;;;;;;40.58;10.40;;;9.60;93.40;;;;;;5053144;28;20024;-29
2023/10/26 07:00:45;;;;;;;16.20;9.32;;;9.60;93.40;;;;;;5053217;28;20025;-27
2023/10/26 07:03:11;;;;;;;15.20;9.70;;;9.70;93.40;;;;;;5053334;28;20021;-27
2023/10/26 07:05:37;;;;;;;20.90;9.88;;;9.70;93.40;;;;;;5053154;28;20051;-30
2023/10/26 07:08:02;;;;;;;60.97;10.55;;;9.80;93.40;;;;;;5053223;28;20041;-27
2023/10/26 07:10:28;;;;;;;65.97;10.95;;;9.80;93.40;;;;;;5053197;28;20473;-28
2023/10/26 07:12:54;;;;;;;112.88;11.13;;;9.80;93.40;;;;;;5053316;28;20021;-30
2023/10/26 07:15:20;;;;;;;102.50;10.93;;;9.80;93.30;;;;;;5052930;28;20424;-30
2023/10/26 07:17:45;;;;;;;83.03;10.55;;;9.80;93.30;;;;;;5052946;28;20025;-27
2023/10/26 07:20:12;;;;;;;72.70;10.40;;;9.90;93.30;;;;;;5052839;28;20060;-30
2023/10/26 07:22:39;;;;;;;146.93;11.40;;;10.00;93.30;;;;;;5053146;28;20025;-28
2023/10/26 07:25:06;;;;;;;93.70;10.30;;;10.00;93.30;;;;;;5052950;28;20396;-28
2023/10/26 07:27:31;;;;;;;68.75;10.02;;;10.00;93.20;;;;;;5052556;28;20021;-26
2023/10/26 07:30:00;;;;;;;73.47;10.55;;;10.00;93.20;;;;;;5052406;28;20056;-28
2023/10/26 07:32:26;;;;;;;221.27;12.55;;;10.10;93.20;;;;;;5053003;28;20025;-27
2023/10/26 07:34:52;;;;;;;87.25;10.50;;;10.10;93.20;;;;;;5052646;28;20091;-27
2023/10/26 07:37:17;;;;;;;105.63;10.57;;;10.10;93.10;;;;;;5052359;28;20098;-27
2023/10/26 07:39:43;;;;;;;95.00;10.38;;;10.10;93.10;;;;;;5052358;28;20443;-29
2023/10/26 07:42:09;;;;;;;150.80;10.70;;;10.20;93.10;;;;;;5052625;28;20120;-28
2023/10/26 07:44:35;;;;;;;122.65;10.27;;;10.20;93.10;;;;;;5052457;28;20469;-27
2023/10/26 07:47:01;;;;;;;48.58;9.40;;;10.20;93.10;;;;;;5052640;28;20039;-30
2023/10/26 07:49:27;;;;;;;78.05;10.00;;;10.20;93.10;;;;;;5052192;28;20021;-27
2023/10/26 07:51:52;;;;;;;104.13;9.65;;;10.30;93.10;;;;;;5052571;28;20025;-30
2023/10/26 07:54:18;;;;;;;95.95;9.25;;;10.30;93.00;;;;;;5052123;28;20033;-32
2023/10/26 07:56:44;;;;;;;174.60;10.45;;;10.40;93.00;;;;;;5052736;28;20488;-27
2023/10/26 07:59:09;;;;;;;79.63;9.73;;;10.40;92.90;;;;;;5051709;28;20584;-31
2023/10/26 08:01:36;;;;;;;126.07;9.52;;;10.30;92.90;;;;;;5052334;28;20021;-32
2023/10/26 08:04:02;;;;;;;61.05;8.77;;;10.30;92.90;;;;;;5050855;28;20029;-27
2023/10/26 08:06:28;;;;;;;106.43;9.45;;;10.30;92.90;;;;;;5052526;28;20032;-29
2023/10/26 08:08:54;;;;;;;59.10;8.75;;;10.30;93.00;;;;;;5050822;28;20047;-26
2023/10/26 08:11:19;;;;;;;55.40;8.70;;;10.30;92.90;;;;;;5052205;28;20151;-28
2023/10/26 08:13:45;;;;;;;95.60;9.40;;;10.30;93.00;;;;;;5052115;28;20029;-29
2023/10/26 08:16:11;;;;;;;49.88;8.30;;;10.40;93.00;;;;;;5052049;28;20048;-30
2023/10/26 08:18:37;;;;;;;58.78;8.57;;;10.40;93.00;;;;;;5051923;28;20283;-27
2023/10/26 08:21:05;;;;;;;57.85;9.15;;;10.40;93.20;;;;;;5051894;28;20029;-29
2023/10/26 08:23:32;;;;;;;77.50;9.57;;;10.50;92.90;;;;;;5052019;28;20056;-28
2023/10/26 08:26:06;;;;;;;39.75;9.18;;;10.50;92.80;;;;;;5051919;28;20060;-28
2023/10/26 08:28:31;;;;;;;;;;;10.60;92.80;;;;;;5050916;28;20025;-28
2023/10/26 08:30:57;;;;;;;42.30;7.78;;;10.60;92.80;;;;;;5051796;28;20023;-30
2023/10/26 08:33:22;;;;;;;37.13;8.38;;;10.60;92.80;;;;;;5051803;28;20029;-29
2023/10/26 08:35:49;;;;;;;42.55;8.70;;;10.60;92.80;;;;;;5051795;28;20025;-32
2023/10/26 08:38:15;;;;;;;19.98;8.48;;;10.70;92.80;;;;;;5052069;28;20028;-28
2023/10/26 08:40:51;;;;;;;32.50;9.07;;;10.70;92.80;;;;;;5051827;28;20104;-30
2023/10/26 08:43:21;;;;;;;20.33;9.50;;;10.70;92.70;;;;;;5050566;28;20028;-30
2023/10/26 08:45:48;;;;;;;30.27;9.13;;;10.80;92.80;;;;;;5051538;28;20082;-28
2023/10/26 08:48:18;;;;;;;32.00;9.48;;;10.90;92.70;;;;;;5051520;28;20029;-26
2023/10/26 08:50:48;;;;;;;21.20;8.85;;;10.90;92.60;;;;;;5051553;28;20498;-37
2023/10/26 08:53:15;;;;;;;15.65;9.77;;;10.90;92.70;;;;;;5051887;28;20533;-35
2023/10/26 08:55:42;;;;;;;37.90;10.05;;;11.00;92.60;;;;;;5051612;28;20509;-29
2023/10/26 08:58:09;;;;;;;15.25;9.48;;;11.00;92.60;;;;;;5051716;28;20029;-29
2023/10/26 09:00:41;;;;;;;45.03;10.15;;;11.10;92.60;;;;;;5051659;28;20017;-26
2023/10/26 09:03:07;;;;;;;24.80;9.38;;;11.10;92.50;;;;;;5051798;28;20021;-26
2023/10/26 09:05:33;;;;;;;22.98;9.55;;;11.10;92.60;;;;;;5051754;28;20504;-26
2023/10/26 09:08:16;;;;;;;22.35;9.65;;;11.10;92.50;;;;;;5051720;28;20044;-32
2023/10/26 09:10:42;;;;;;;23.27;9.57;;;11.20;92.50;;;;;;5051211;28;20025;-30
2023/10/26 09:13:08;;;;;;;36.72;10.25;;;11.30;92.50;;;;;;5054436;28;20037;-29
2023/10/26 09:15:50;;;;;;;32.90;10.80;;;11.30;92.40;;;;;;5055740;28;20029;-27
2023/10/26 09:18:17;;;;;;;35.57;10.07;;;11.20;92.30;;;;;;5055545;28;20079;-28
2023/10/26 09:20:59;;;;;;;29.52;10.23;;;11.10;92.30;;;;;;5055130;28;20070;-26
2023/10/26 09:23:30;;;;;;;21.15;9.90;;;11.00;92.40;;;;;;5054906;28;20111;-32
2023/10/26 09:26:02;;;;;;;40.25;10.55;;;11.10;92.40;;;;;;5055158;28;20021;-26
2023/10/26 09:28:28;;;;;;;27.65;9.88;;;11.10;92.40;;;;;;5054771;28;20029;-28
2023/10/26 09:30:59;;;;;;;25.20;10.35;;;11.10;92.50;;;;;;5054926;28;20387;-28
2023/10/26 09:33:25;;;;;;;15.95;9.82;;;11.10;92.50;;;;;;5055077;28;20555;-27
2023/10/26 09:35:52;;;;;;;16.13;9.73;;;11.20;92.50;;;;;;5055173;28;20021;-26
2023/10/26 09:38:34;;;;;;;14.35;10.48;;;11.30;92.50;;;;;;5054994;28;20033;-30
2023/10/26 09:41:00;;;;;;;13.43;10.45;;;11.30;92.40;;;;;;5054834;28;20473;-27
2023/10/26 09:43:26;;;;;;;15.45;10.88;;;11.40;92.40;;;;;;5054941;28;20021;-33
2023/10/26 09:45:51;;;;;;;13.40;10.65;;;11.50;92.30;;;;;;5053044;28;20086;-26
2023/10/26 09:48:19;;;;;;;12.90;10.52;;;11.50;92.30;;;;;;5053174;28;20043;-30
2023/10/26 09:50:46;;;;;;;14.75;10.52;;;11.60;92.30;;;;;;5054704;28;20025;-29
2023/10/26 09:53:12;;;;;;;20.38;11.50;;;11.60;92.20;;;;;;5054582;28;20021;-32
2023/10/26 09:55:38;;;;;;;13.90;11.30;;;11.50;92.10;;;;;;5054548;28;20031;-27
2023/10/26 09:58:08;;;;;;;15.52;11.45;;;11.40;92.10;;;;;;5053376;28;20037;-29
2023/10/26 10:00:34;;;;;;;14.70;11.60;;;11.30;92.20;;;;;;5054504;28;20142;-27
2023/10/26 10:03:14;;;;;;;15.10;11.88;;;11.40;92.30;;;;;;5054119;28;20056;-29
2023/10/26 10:05:41;;;;;;;16.02;12.50;;;11.40;92.30;;;;;;5054219;28;20060;-27
2023/10/26 10:08:07;;;;;;;16.83;12.95;;;11.40;92.30;;;;;;5054379;28;20032;-29
2023/10/26 10:10:33;;;;;;;17.80;13.77;;;11.50;92.30;;;;;;5054302;28;20021;-28
2023/10/26 10:12:59;;;;;;;16.02;12.93;;;11.60;92.40;;;;;;5054525;28;20023;-35
2023/10/26 10:15:39;;;;;;;18.10;13.52;;;11.60;92.10;;;;;;5054346;28;20017;-30
2023/10/26 10:18:06;;;;;;;18.75;13.95;;;11.70;92.10;;;;;;5053988;28;20032;-27
2023/10/26 10:20:43;;;;;;;18.48;12.70;;;11.60;92.10;;;;;;5053782;28;20115;-30
2023/10/26 10:23:27;;;;;;;19.02;13.75;;;11.60;92.10;;;;;;5053820;28;20053;-27
2023/10/26 10:25:56;;;;;;;17.17;12.80;;;11.60;92.10;;;;;;5054012;28;20024;-27
2023/10/26 10:28:21;;;;;;;19.08;14.40;;;11.60;92.10;;;;;;5052516;28;20359;-27
2023/10/26 10:31:00;;;;;;;17.40;13.15;;;11.60;92.10;;;;;;5053442;28;20049;-29
2023/10/26 10:33:27;;;;;;;19.98;14.00;;;11.50;92.10;;;;;;5053670;28;20490;-27
2023/10/26 10:36:04;;;;;;;19.95;15.30;;;11.50;92.10;;;;;;5053719;28;20051;-27
2023/10/26 10:38:31;;;;;;;19.45;14.48;;;11.50;92.10;;;;;;5053524;28;20025;-27
2023/10/26 10:40:59;;;;;;;20.25;15.13;;;11.50;92.10;;;;;;5053646;28;20105;-28
2023/10/26 10:43:34;;;;;;;20.08;14.48;;;11.50;92.10;;;;;;5053854;28;20027;-27
2023/10/26 10:46:13;;;;;;;18.70;14.02;;;11.50;92.20;;;;;;5053601;28;20484;-26
2023/10/26 10:49:05;;;;;;;20.25;14.93;;;11.50;92.20;;;;;;5053446;28;20074;-28
2023/10/26 10:51:41;;;;;;;20.88;14.45;;;11.60;92.10;;;;;;5053675;28;20021;-27
2023/10/26 10:54:15;;;;;;;21.02;15.20;;;11.60;92.10;;;;;;5053250;28;20033;-28
2023/10/26 10:56:43;;;;;;;19.40;14.57;;;11.80;92.10;;;;;;5053501;28;20487;-28
2023/10/26 10:59:19;;;;;;;18.73;14.50;;;11.90;92.00;;;;;;5053422;28;20052;-27
2023/10/26 11:01:46;;;;;;;20.52;15.45;;;12.00;91.90;;;;;;5052770;28;20481;-27
2023/10/26 11:04:15;;;;;;;19.15;14.70;;;12.10;91.90;;;;;;5052993;28;20032;-27
2023/10/26 11:06:49;;;;;;;19.13;14.52;;;12.20;91.80;;;;;;5052793;28;20036;-28
2023/10/26 11:09:21;;;;;;;21.55;15.40;;;12.20;91.70;;;;;;5053034;28;20032;-27
2023/10/26 11:11:46;;;;;;;17.33;13.75;;;12.20;91.70;;;;;;5053042;28;20112;-30
2023/10/26 11:14:12;;;;;;;18.77;14.13;;;12.30;91.70;;;;;;5052802;28;20528;-27
2023/10/26 11:16:40;;;;;;;18.70;13.73;;;12.40;91.90;;;;;;5052657;28;20029;-27
2023/10/26 11:19:06;;;;;;;17.10;13.05;;;12.40;91.60;;;;;;5052885;28;20036;-26
2023/10/26 11:21:32;;;;;;;19.25;14.40;;;12.40;91.50;;;;;;5052546;28;20477;-26
2023/10/26 11:23:58;;;;;;;18.75;13.70;;;12.40;91.50;;;;;;5052630;28;20072;-29
2023/10/26 11:26:23;;;;;;;20.10;13.45;;;12.40;91.50;;;;;;5052827;28;20024;-29
2023/10/26 11:28:49;;;;;;;19.13;13.35;;;12.40;91.50;;;;;;5052209;28;20429;-28
2023/10/26 11:31:15;;;;;;;17.45;13.27;;;12.40;91.50;;;;;;5051167;28;20013;-27
2023/10/26 11:33:42;;;;;;;17.58;13.63;;;12.40;91.50;;;;;;5052321;28;20029;-29
2023/10/26 11:36:10;;;;;;;18.45;12.93;;;12.40;91.40;;;;;;5052196;28;20488;-28
2023/10/26 11:38:36;;;;;;;18.10;14.18;;;12.40;91.40;;;;;;5052245;28;20378;-27
2023/10/26 11:41:01;;;;;;;17.30;13.90;;;12.40;91.50;;;;;;5052112;28;20150;-25
2023/10/26 11:43:35;;;;;;;17.98;13.23;;;12.30;91.70;;;;;;5052321;28;20057;-27
2023/10/26 11:46:03;;;;;;;17.83;13.70;;;12.30;91.40;;;;;;5051943;28;20036;-27
2023/10/26 11:48:31;;;;;;;17.98;13.35;;;12.40;91.50;;;;;;5052034;28;20021;-29
2023/10/26 11:50:57;;;;;;;17.92;13.95;;;12.30;91.50;;;;;;5052402;28;20381;-27
2023/10/26 11:53:23;;;;;;;18.83;14.35;;;12.40;91.50;;;;;;5052088;28;20025;-30
2023/10/26 11:55:50;;;;;;;19.33;14.63;;;12.30;91.40;;;;;;5050784;28;20035;-28
2023/10/26 11:58:16;;;;;;;17.63;13.32;;;12.30;91.40;;;;;;5050706;28;20025;-27
2023/10/26 12:00:42;;;;;;;16.38;13.55;;;12.30;91.40;;;;;;5050588;28;20426;-28
2023/10/26 12:03:08;;;;;;;17.17;13.23;;;12.30;91.40;;;;;;5051901;28;20025;-28
2023/10/26 12:05:34;;;;;;;18.13;13.48;;;12.30;91.40;;;;;;5051981;28;20055;-27
2023/10/26 12:08:00;;;;;;;18.10;13.45;;;12.30;91.40;;;;;;5051913;28;20021;-27
2023/10/26 12:10:25;;;;;;;17.63;12.75;;;12.30;91.40;;;;;;5051916;28;20090;-27
2023/10/26 12:12:52;;;;;;;15.93;12.43;;;12.30;91.40;;;;;;5052099;28;20044;-28
2023/10/26 12:15:19;;;;;;;18.33;12.88;;;12.30;91.40;;;;;;5052083;28;20462;-28
2023/10/26 12:17:45;;;;;;;16.02;12.70;;;12.30;91.40;;;;;;5051765;28;20021;-27
2023/10/26 12:20:11;;;;;;;15.18;12.60;;;12.30;91.30;;;;;;5051867;28;20521;-27
2023/10/26 12:22:37;;;;;;;17.38;12.60;;;12.20;91.30;;;;;;5051775;28;20100;-29
2023/10/26 12:25:10;;;;;;;15.73;12.63;;;12.20;91.30;;;;;;5051568;28;20587;-30
2023/10/26 12:27:37;;;;;;;17.58;12.90;;;12.20;91.30;;;;;;5051724;28;20432;-29
2023/10/26 12:30:03;;;;;;;15.23;12.10;;;12.20;91.30;;;;;;5051321;28;20045;-33
2023/10/26 12:32:30;;;;;;;16.90;13.10;;;12.20;91.30;;;;;;5051973;28;20389;-35